• Join FlightAware (Why Join?)
  • Login
  • US Flag GB Flag 
12:55 EDT


 

Airport Tracker/Info


-or-


 

Live Flight TrackerFlight Track Log ✈ SWA3294 ✈ 06-Apr-2013 ✈ KATL - KBWI

Flight Track Log - Related Links

Times and Time Zones

All times are in EDT time to prevent confusion due to time zone crossing. See the SWA3294 flight status page for this flight to view local times or setup timezone preferences in your user account.

Time Position Orientation Groundspeed Altitude Reporting Facility
EDT Latitude Longitude Course Direction KTS MPH feet Rate Location/Type
06:17 33.6500 -84.3667 54° Northeast 181 208 2,900  Level Atlanta TRACON
06:18 33.6833 -84.3167 51° Northeast 228 262 4,800 2,820 Climbing Atlanta TRACON
06:19 33.7167 -84.2333 64° Northeast 277 319 8,300 2,340 Climbing Atlanta TRACON
06:21 33.7817 -84.0664 65° Northeast 318 366 11,900 2,220 Climbing Atlanta Center
06:22 33.8275 -83.9589 63° Northeast 343 395 14,800 2,700 Climbing Atlanta Center
06:23 33.7980 -83.8979 54° Northeast  Level FlightAware Approximate
06:23 33.8733 -83.8436 64° Northeast 365 420 17,400  Level Atlanta Center
06:24 33.9211 -83.7308 63° Northeast 370 426 19,300 1,920 Climbing Atlanta Center
06:25 33.9878 -83.6231 53° Northeast 390 449 21,300 1,920 Climbing Atlanta Center
06:26 34.0622 -83.5022 53° Northeast 403 464 23,200 1,800 Climbing Atlanta Center
06:27 34.1328 -83.3889 53° Northeast 417 480 25,000 1,740 Climbing Atlanta Center
06:28 34.2008 -83.2728 55° Northeast 417 480 26,700 1,680 Climbing Atlanta Center
06:29 34.2733 -83.1564 53° Northeast 423 487 28,400 1,800 Climbing Atlanta Center
06:30 34.3433 -83.0375 54° Northeast 438 504 30,300 1,800 Climbing Atlanta Center
06:31 34.4111 -82.9258 54° Northeast 427 491 32,000 1,500 Climbing Atlanta Center
06:32 34.4789 -82.8092 55° Northeast 421 484 33,300 1,260 Climbing Atlanta Center
06:33 34.5444 -82.6972 55° Northeast 410 472 34,600 840 Climbing Atlanta Center
06:34 34.6061 -82.5953 54° Northeast 404 465 35,000 180 Climbing Atlanta Center
06:35 34.6756 -82.4803 54° Northeast 411 473 35,000  Level Atlanta Center
06:36 34.7450 -82.3653 54° Northeast 418 481 35,000  Level Atlanta Center
06:37 34.8164 -82.2425 55° Northeast 430 495 35,000  Level Atlanta Center
06:38 34.8833 -82.1244 55° Northeast 430 495 35,000  Level Atlanta Center
06:39 34.9647 -81.9958 52° Northeast 430 495 35,000  Level Atlanta Center
06:40 35.0233 -81.8881 56° Northeast 430 495 35,000  Level Atlanta Center
06:41 35.0942 -81.7644 55° Northeast 430 495 35,000  Level Atlanta Center
06:42 35.1628 -81.6456 55° Northeast 430 495 35,000  Level Atlanta Center
06:43 35.2314 -81.5267 55° Northeast 430 495 35,000  Level Atlanta Center
06:44 35.2978 -81.4100 55° Northeast 424 488 35,000  Level Atlanta Center
06:45 35.3622 -81.2933 56° Northeast 424 488 35,000  Level Atlanta Center
06:46 35.4283 -81.1739 56° Northeast 419 482 35,000  Level Atlanta Center
06:47 35.4983 -81.0517 55° Northeast 432 497 35,000  Level Atlanta Center
06:48 35.5683 -80.9292 55° Northeast 432 497 35,000  Level Atlanta Center
06:49 35.6361 -80.8142 54° Northeast 427 491 35,000  Level Atlanta Center
06:51 35.7639 -80.5836 56° Northeast 436 502 35,000  Level Washington Center
06:52 35.8317 -80.4597 56° Northeast 431 496 35,000  Level Washington Center
06:53 35.8992 -80.3358 56° Northeast 426 490 35,000  Level Washington Center
06:54 35.9689 -80.2117 55° Northeast 426 490 35,000  Level Washington Center
06:55 36.0247 -80.1097 56° Northeast 431 496 35,000  Level Washington Center
06:56 36.1028 -79.9778 54° Northeast 431 496 35,000  Level Washington Center
06:57 36.1719 -79.8531 55° Northeast 437 503 35,000  Level Washington Center
06:58 36.2436 -79.7128 58° Northeast 437 503 35,000  Level Washington Center
06:59 36.3058 -79.6025 55° Northeast 437 503 35,000  Level Washington Center
07:00 36.3814 -79.4594 57° Northeast 437 503 35,000  Level Washington Center
07:01 36.4481 -79.3336 57° Northeast 437 503 35,000  Level Washington Center
07:02 36.5189 -79.2050 56° Northeast 442 509 35,000  Level Washington Center
07:03 36.5828 -79.0942 54° Northeast 442 509 35,000  Level Washington Center
07:04 36.6489 -78.9678 57° Northeast 436 502 35,000 -1,500 Level Washington Center
07:05 36.7153 -78.8333 58° Northeast 441 507 32,100 -3,000 Descending Washington Center
07:06 36.7875 -78.7067 55° Northeast 447 514 29,100 -1,560 Descending Washington Center
07:07 36.8556 -78.5719 58° Northeast 447 514 29,000 -60 Descending Washington Center
07:08 36.9361 -78.4269 55° Northeast 452 520 29,000  Level Washington Center
07:09 37.0061 -78.2889 58° Northeast 452 520 29,000  Level Washington Center
07:10 37.0736 -78.1586 57° Northeast 452 520 29,000 -240 Level Washington Center
07:11 37.1472 -78.0358 53° Northeast 445 512 28,600 -720 Descending Washington Center
07:12 37.2572 -77.9586 29° Northeast 433 498 27,600 -960 Descending Washington Center
07:13 37.3631 -77.8833 29° Northeast 433 498 26,700 -960 Descending Washington Center
07:14 37.4686 -77.8081 30° Northeast 433 498 25,700 -1,020 Descending Washington Center
07:15 37.5744 -77.7300 30° Northeast 433 498 24,700 -960 Descending Washington Center
07:16 37.6822 -77.6542 29° Northeast 433 498 23,800 -900 Descending Washington Center
07:17 37.7856 -77.5808 29° Northeast 433 498 23,000 -420 Descending Washington Center
07:18 37.8889 -77.5019 31° Northeast 433 498 23,000  Level Washington Center
07:19 37.9925 -77.4256 30° Northeast 428 493 23,000 -420 Level Washington Center
07:20 38.0914 -77.3514 31° Northeast 428 493 22,200 -1,500 Descending Washington Center
07:21 38.1883 -77.2797 30° Northeast 417 480 20,100 -1,680 Descending Washington Center
07:22 38.2750 -77.1972 37° Northeast 404 465 18,900 -1,140 Descending Washington Center
07:23 38.3536 -77.0956 45° Northeast 393 452 17,900 -1,800 Descending Washington Center
07:24 38.4278 -77.0044 44° Northeast 382 440 15,400 -2,460 Descending Washington Center
07:25 38.5017 -76.9103 45° Northeast 376 433 13,000 -2,340 Descending Washington Center
07:26 38.5714 -76.8211 45° Northeast 371 427 10,800 -1,440 Descending Washington Center
07:27 38.6347 -76.7397 45° Northeast 346 398 10,200 -900 Descending Washington Center
07:28 38.6875 -76.6742 44° Northeast 302 348 9,100 -1,260 Descending Washington Center
07:29 38.7500 -76.6000 43° Northeast 262 302 7,500 -1,440 Descending Potomac TRACON
07:30 38.8000 -76.5333 46° Northeast 256 295 6,200 -1,320 Descending Potomac TRACON
07:31 38.8500 -76.5167 15° North 237 273 5,100 -1,200 Descending Potomac TRACON
07:32 38.9167 -76.5167 360° North 234 269 4,000 -960 Descending Potomac TRACON
07:33 38.9667 -76.5333 345° North 221 254 3,400 -540 Descending Potomac TRACON
07:34 39.0333 -76.5500 349° North 210 242 3,000 -540 Descending Potomac TRACON
07:35 39.0667 -76.5833 322° Northwest 173 199 2,400 -660 Descending Potomac TRACON
07:36 39.1000 -76.6000 339° North 142 163 1,800 -780 Descending Potomac TRACON
07:37 39.1333 -76.6333 322° Northwest 130 150 1,000 -840 Descending Potomac TRACON
07:39 39.1667 -76.6667 339° North  Level FlightAware Approximate
07:46 39.1754 -76.6683 339° North  Level Estimated
07:47 39.1754 -76.6683 339° North  Level Estimated
07:48 39.1754 -76.6683 339° North  Level Estimated
07:49 39.1754 -76.6683 339° North  Level Estimated